createdAt,value
2018-07-06T00:00:32.313Z,20.2
2018-07-06T00:01:33.617Z,20.2
2018-07-06T00:02:38.014Z,20.2
2018-07-06T00:03:39.314Z,20.1
2018-07-06T00:04:40.580Z,20.1
2018-07-06T00:05:41.883Z,20.1
2018-07-06T00:06:43.142Z,20.1
2018-07-06T00:07:44.487Z,20.1
2018-07-06T00:08:45.736Z,20
2018-07-06T00:09:47.078Z,20
2018-07-06T00:10:48.370Z,20
2018-07-06T00:11:49.706Z,20.1
2018-07-06T00:12:51.347Z,20.1
2018-07-06T00:13:52.667Z,20
2018-07-06T00:14:53.967Z,20
2018-07-06T00:15:55.265Z,20
2018-07-06T00:16:56.557Z,19.9
2018-07-06T00:17:57.994Z,20.1
2018-07-06T00:18:59.299Z,20
2018-07-06T00:20:00.705Z,20
2018-07-06T00:21:04.630Z,19.9
2018-07-06T00:22:06.109Z,19.9
2018-07-06T00:23:07.688Z,20
2018-07-06T00:24:08.995Z,19.9
2018-07-06T00:25:11.458Z,19.7
2018-07-06T00:26:12.750Z,19.8
2018-07-06T00:27:14.350Z,19.8
2018-07-06T00:28:17.575Z,19.8
2018-07-06T00:29:18.851Z,19.8
2018-07-06T00:30:20.151Z,19.9
2018-07-06T00:31:21.414Z,19.8
2018-07-06T00:32:22.722Z,19.8
2018-07-06T00:33:24.159Z,19.8
2018-07-06T00:34:25.705Z,19.8
2018-07-06T00:35:26.954Z,19.8
2018-07-06T00:36:28.172Z,19.8
2018-07-06T00:37:31.863Z,19.8
2018-07-06T00:38:33.263Z,19.7
2018-07-06T00:39:34.632Z,19.7
2018-07-06T00:40:35.933Z,19.7
2018-07-06T00:41:37.240Z,19.7
2018-07-06T00:42:38.528Z,19.6
2018-07-06T00:43:39.859Z,19.7
2018-07-06T00:44:41.187Z,19.6
2018-07-06T00:45:42.710Z,19.6
2018-07-06T00:46:43.976Z,19.6
2018-07-06T00:47:45.323Z,19.5
2018-07-06T00:48:46.652Z,19.6
2018-07-06T00:49:48.225Z,19.5
2018-07-06T00:50:49.729Z,19.4
2018-07-06T00:51:51.347Z,19.4
2018-07-06T00:52:52.712Z,19.4
2018-07-06T00:53:54.034Z,19.4
2018-07-06T00:54:55.485Z,19.3
2018-07-06T00:55:56.673Z,19.3
2018-07-06T00:56:59.280Z,19.3
2018-07-06T00:58:03.650Z,19.2
2018-07-06T00:59:05.050Z,19.2
2018-07-06T01:00:06.377Z,19.3
2018-07-06T01:01:10.547Z,19.2
2018-07-06T01:02:15.928Z,19.3
2018-07-06T01:03:26.594Z,19.2
2018-07-06T01:04:27.920Z,19.2
2018-07-06T01:05:29.290Z,19.1
2018-07-06T01:06:30.652Z,19.2
2018-07-06T01:07:31.979Z,19.2
2018-07-06T01:08:33.224Z,19.1
2018-07-06T01:09:34.541Z,19.1
2018-07-06T01:10:35.907Z,19.1
2018-07-06T01:11:38.322Z,19
2018-07-06T01:12:40.944Z,19.1
2018-07-06T01:13:42.366Z,19.1
2018-07-06T01:14:43.703Z,19.1
2018-07-06T01:15:45.000Z,19.1
2018-07-06T01:16:46.323Z,19.1
2018-07-06T01:17:47.648Z,19.1
2018-07-06T01:18:48.935Z,19.1
2018-07-06T01:19:50.250Z,19.1
2018-07-06T01:20:51.570Z,19.1
2018-07-06T01:21:52.904Z,19.1
2018-07-06T01:22:54.276Z,19
2018-07-06T01:23:55.626Z,19.1
2018-07-06T01:24:56.920Z,19
2018-07-06T01:25:58.204Z,18.9
2018-07-06T01:26:59.488Z,19
2018-07-06T01:28:00.818Z,19
2018-07-06T01:29:02.275Z,19.1
2018-07-06T01:30:03.583Z,19
2018-07-06T01:31:04.886Z,19
2018-07-06T01:32:06.200Z,18.9
2018-07-06T01:33:07.536Z,19
2018-07-06T01:34:08.832Z,18.8
2018-07-06T01:35:10.359Z,19.1
2018-07-06T01:36:13.764Z,18.9
2018-07-06T01:37:15.064Z,18.9
2018-07-06T01:38:16.325Z,18.9
2018-07-06T01:39:17.723Z,18.9
2018-07-06T01:40:19.046Z,18.8
2018-07-06T01:41:20.375Z,18.9
2018-07-06T01:42:21.708Z,18.8
2018-07-06T01:43:23.050Z,18.8
2018-07-06T01:44:24.349Z,18.7
2018-07-06T01:45:27.371Z,18.8
2018-07-06T01:46:28.730Z,18.9
2018-07-06T01:47:32.141Z,18.8
2018-07-06T01:48:33.667Z,18.8
2018-07-06T01:49:34.971Z,18.8
2018-07-06T01:50:36.322Z,18.8
2018-07-06T01:51:37.612Z,18.8
2018-07-06T01:52:38.928Z,18.7
2018-07-06T01:53:41.326Z,18.7
2018-07-06T01:54:42.628Z,18.7
2018-07-06T01:55:43.935Z,18.7
2018-07-06T01:56:47.567Z,18.7
2018-07-06T01:57:48.858Z,18.6
2018-07-06T01:58:50.139Z,18.6
2018-07-06T01:59:51.474Z,18.7
2018-07-06T02:00:52.836Z,18.6
2018-07-06T02:01:54.194Z,18.6
2018-07-06T02:02:55.543Z,18.7
2018-07-06T02:03:57.237Z,18.6
2018-07-06T02:04:58.549Z,18.5
2018-07-06T02:05:59.860Z,18.5
2018-07-06T02:07:01.120Z,18.6
2018-07-06T02:08:02.405Z,18.6
2018-07-06T02:09:03.720Z,18.6
2018-07-06T02:10:04.991Z,18.5
2018-07-06T02:11:06.315Z,18.4
2018-07-06T02:12:07.585Z,18.5
2018-07-06T02:13:11.806Z,18.3
2018-07-06T02:14:13.108Z,18.5
2018-07-06T02:15:21.928Z,18.4
2018-07-06T02:16:23.496Z,18.4
2018-07-06T02:17:24.803Z,18.3
2018-07-06T02:18:26.154Z,18.4
2018-07-06T02:19:27.399Z,18.4
2018-07-06T02:20:28.683Z,18.3
2018-07-06T02:21:29.982Z,18.4
2018-07-06T02:22:34.260Z,18.3
2018-07-06T02:23:35.657Z,18.3
2018-07-06T02:24:36.987Z,18.3
2018-07-06T02:25:38.279Z,18.3
2018-07-06T02:26:39.594Z,18.2
2018-07-06T02:27:43.080Z,18.2
2018-07-06T02:28:44.396Z,18.3
2018-07-06T02:29:45.665Z,18.3
2018-07-06T02:30:46.920Z,18.2
2018-07-06T02:31:48.458Z,18.2
2018-07-06T02:32:49.748Z,18.1
2018-07-06T02:33:51.356Z,18.2
2018-07-06T02:34:52.760Z,18.3
2018-07-06T02:35:54.252Z,18.4
2018-07-06T02:36:55.589Z,18.5
2018-07-06T02:37:56.843Z,18.3
2018-07-06T02:38:58.367Z,18.2
2018-07-06T02:39:59.871Z,18.2
2018-07-06T02:41:01.225Z,18.1
2018-07-06T02:42:02.562Z,17.9
2018-07-06T02:43:06.122Z,18
2018-07-06T02:44:07.594Z,18
2018-07-06T02:45:09.020Z,18
2018-07-06T02:46:10.280Z,17.9
2018-07-06T02:47:11.712Z,18
2018-07-06T02:48:12.999Z,17.9
2018-07-06T02:49:14.277Z,18
2018-07-06T02:50:15.700Z,17.9
2018-07-06T02:51:17.142Z,17.9
2018-07-06T02:52:18.550Z,17.9
2018-07-06T02:53:19.882Z,17.8
2018-07-06T02:54:21.211Z,17.8
2018-07-06T02:55:22.477Z,17.9
2018-07-06T02:56:23.949Z,17.8
2018-07-06T02:57:25.879Z,17.8
2018-07-06T02:58:27.180Z,17.8
2018-07-06T02:59:30.975Z,17.8
2018-07-06T03:00:32.283Z,17.7
2018-07-06T03:01:33.577Z,17.8
2018-07-06T03:02:34.921Z,17.6
2018-07-06T03:03:36.235Z,17.7
2018-07-06T03:04:37.757Z,17.7
2018-07-06T03:05:39.096Z,17.7
2018-07-06T03:06:40.498Z,17.7
2018-07-06T03:07:43.109Z,17.8
2018-07-06T03:08:44.432Z,17.7
2018-07-06T03:09:45.726Z,17.6
2018-07-06T03:10:47.014Z,17.7
2018-07-06T03:11:48.352Z,17.7
2018-07-06T03:12:49.682Z,17.6
2018-07-06T03:13:51.334Z,17.6
2018-07-06T03:14:52.646Z,17.5
2018-07-06T03:15:54.207Z,17.6
2018-07-06T03:16:56.337Z,17.5
2018-07-06T03:17:58.282Z,17.5
2018-07-06T03:18:59.531Z,17.5
2018-07-06T03:20:04.750Z,17.5
2018-07-06T03:21:06.355Z,17.5
2018-07-06T03:22:07.741Z,17.5
2018-07-06T03:23:09.091Z,17.5
2018-07-06T03:24:11.149Z,17.4
2018-07-06T03:25:13.439Z,17.4
2018-07-06T03:26:14.779Z,17.4
2018-07-06T03:27:18.892Z,17.5
2018-07-06T03:28:20.747Z,17.4
2018-07-06T03:29:22.178Z,17.3
2018-07-06T03:30:29.479Z,17.4
2018-07-06T03:31:30.798Z,17.4
2018-07-06T03:32:32.437Z,17.4
2018-07-06T03:33:38.194Z,17.4
2018-07-06T03:34:39.782Z,17.4
2018-07-06T03:35:41.308Z,17.4
2018-07-06T03:36:42.655Z,17.4
2018-07-06T03:37:46.737Z,17.4
2018-07-06T03:38:48.009Z,17.4
2018-07-06T03:39:49.312Z,17.4
2018-07-06T03:40:51.083Z,17.5
2018-07-06T03:41:52.522Z,17.4
2018-07-06T03:42:53.841Z,17.5
2018-07-06T03:43:55.330Z,17.5
2018-07-06T03:44:56.799Z,17.5
2018-07-06T03:45:58.083Z,17.6
2018-07-06T03:46:59.354Z,17.6
2018-07-06T03:48:00.693Z,17.6
2018-07-06T03:49:01.994Z,17.6
2018-07-06T03:50:03.319Z,17.6
2018-07-06T03:51:04.616Z,17.6
2018-07-06T03:52:05.864Z,17.6
2018-07-06T03:53:07.167Z,17.6
2018-07-06T03:54:08.459Z,17.6
2018-07-06T03:55:09.718Z,17.6
2018-07-06T03:56:11.343Z,17.7
2018-07-06T03:57:12.894Z,17.6
2018-07-06T03:58:14.211Z,17.7
2018-07-06T03:59:15.502Z,17.7
2018-07-06T04:00:16.796Z,17.9
2018-07-06T04:01:18.126Z,17.8
2018-07-06T04:02:19.355Z,17.8
2018-07-06T04:03:23.329Z,17.8
2018-07-06T04:04:24.835Z,17.9
2018-07-06T04:05:26.320Z,17.9
2018-07-06T04:06:27.595Z,17.9
2018-07-06T04:07:28.950Z,18
2018-07-06T04:08:30.347Z,18.1
2018-07-06T04:09:31.963Z,17.9
2018-07-06T04:10:33.278Z,18
2018-07-06T04:11:34.592Z,18
2018-07-06T04:12:36.097Z,17.9
2018-07-06T04:13:39.495Z,18
2018-07-06T04:14:40.819Z,17.9
2018-07-06T04:15:42.165Z,18
2018-07-06T04:16:43.774Z,17.9
2018-07-06T04:17:45.319Z,17.9
2018-07-06T04:18:46.826Z,18
2018-07-06T04:19:48.186Z,18
2018-07-06T04:20:49.713Z,18
2018-07-06T04:21:50.979Z,18.1
2018-07-06T04:22:52.270Z,18.1
2018-07-06T04:23:53.591Z,18.2
2018-07-06T04:24:54.943Z,18.2
2018-07-06T04:25:56.212Z,18.1
2018-07-06T04:26:57.496Z,18.1
2018-07-06T04:27:58.836Z,18.1
2018-07-06T04:29:00.156Z,18.2
2018-07-06T04:30:01.495Z,18.1
2018-07-06T04:31:02.780Z,18.2
2018-07-06T04:32:05.548Z,18.2
2018-07-06T04:33:06.854Z,18.2
2018-07-06T04:34:08.130Z,18.2
2018-07-06T04:35:09.469Z,18.3
2018-07-06T04:36:10.825Z,18.3
2018-07-06T04:37:12.126Z,18.2
2018-07-06T04:38:13.627Z,18.2
2018-07-06T04:39:14.921Z,18.3
2018-07-06T04:40:16.271Z,18.2
2018-07-06T04:41:17.567Z,18.3
2018-07-06T04:42:21.666Z,18.4
2018-07-06T04:43:22.979Z,18.3
2018-07-06T04:44:24.289Z,18.6
2018-07-06T04:45:26.714Z,18.5
2018-07-06T04:46:27.974Z,18.5
2018-07-06T04:47:29.315Z,18.3
2018-07-06T04:48:30.647Z,18.4
2018-07-06T04:49:31.971Z,18.6
2018-07-06T04:50:33.330Z,18.4
2018-07-06T04:51:34.605Z,18.6
2018-07-06T04:52:35.916Z,18.7
2018-07-06T04:53:37.173Z,18.6
2018-07-06T04:54:47.319Z,18.7
2018-07-06T04:55:48.863Z,18.6
2018-07-06T04:56:50.736Z,18.6
2018-07-06T04:57:52.062Z,18.7
2018-07-06T04:58:53.384Z,18.6
2018-07-06T04:59:54.940Z,18.8
2018-07-06T05:00:56.242Z,18.6
2018-07-06T05:01:57.531Z,18.7
2018-07-06T05:03:00.109Z,18.8
2018-07-06T05:04:01.489Z,18.8
2018-07-06T05:05:05.737Z,19
2018-07-06T05:06:07.050Z,18.9
2018-07-06T05:07:08.410Z,18.9
2018-07-06T05:08:12.203Z,18.8
2018-07-06T05:09:13.707Z,18.6
2018-07-06T05:10:15.292Z,18.8
2018-07-06T05:11:16.694Z,18.8
2018-07-06T05:12:18.007Z,18.8
2018-07-06T05:13:19.369Z,18.9
2018-07-06T05:14:20.691Z,19
2018-07-06T05:15:22.177Z,19.1
2018-07-06T05:16:23.632Z,19.1
2018-07-06T05:17:24.930Z,19
2018-07-06T05:18:26.288Z,19
2018-07-06T05:19:27.579Z,18.9
2018-07-06T05:20:28.909Z,19
2018-07-06T05:21:30.271Z,19
2018-07-06T05:22:34.090Z,19.2
2018-07-06T05:23:50.408Z,19
2018-07-06T05:24:51.740Z,19.1
2018-07-06T05:25:53.066Z,19.3
2018-07-06T05:26:54.448Z,19.2
2018-07-06T05:27:55.773Z,19.2
2018-07-06T05:28:58.051Z,19.1
2018-07-06T05:29:59.627Z,19
2018-07-06T05:31:00.995Z,19.1
2018-07-06T05:32:02.389Z,19
2018-07-06T05:33:05.224Z,19.1
2018-07-06T05:34:07.823Z,19.2
2018-07-06T05:35:13.667Z,19.2
2018-07-06T05:36:14.985Z,19.1
2018-07-06T05:37:16.402Z,19.2
2018-07-06T05:38:17.738Z,19.2
2018-07-06T05:39:19.034Z,19.2
2018-07-06T05:40:20.350Z,19.3
2018-07-06T05:41:21.643Z,19.2
2018-07-06T05:42:23.051Z,19.2
2018-07-06T05:43:24.414Z,19.2
2018-07-06T05:44:25.720Z,19.2
2018-07-06T05:45:27.007Z,19.3
2018-07-06T05:46:28.338Z,19.3
2018-07-06T05:47:32.221Z,19.3
2018-07-06T05:48:33.781Z,19.3
2018-07-06T05:49:36.317Z,19.4
2018-07-06T05:50:39.063Z,19.3
2018-07-06T05:51:41.923Z,19.4
2018-07-06T05:52:43.224Z,19.3
2018-07-06T05:53:47.682Z,19.3
2018-07-06T05:54:51.450Z,19.3
2018-07-06T05:55:53.792Z,19.3
2018-07-06T05:56:55.496Z,19.3
2018-07-06T05:57:56.859Z,19.4
2018-07-06T05:58:58.316Z,19.5
2018-07-06T05:59:59.595Z,19.4
2018-07-06T06:01:01.053Z,19.4
2018-07-06T06:02:02.397Z,19.4
2018-07-06T06:03:03.832Z,19.5
2018-07-06T06:04:05.328Z,19.4
2018-07-06T06:05:10.422Z,19.4
2018-07-06T06:06:15.101Z,19.4
2018-07-06T06:07:16.434Z,19.5
2018-07-06T06:08:17.790Z,19.5
2018-07-06T06:09:19.323Z,19.5
2018-07-06T06:10:20.722Z,19.4
2018-07-06T06:11:22.106Z,19.6
2018-07-06T06:12:27.325Z,19.5
2018-07-06T06:13:33.229Z,19.5
2018-07-06T06:14:35.715Z,19.5
2018-07-06T06:15:39.658Z,19.6
2018-07-06T06:16:41.317Z,19.5
2018-07-06T06:17:42.551Z,19.6
2018-07-06T06:18:43.989Z,19.6
2018-07-06T06:19:47.995Z,19.6
2018-07-06T06:20:49.286Z,19.6
2018-07-06T06:21:53.340Z,19.6
2018-07-06T06:22:56.511Z,19.6
2018-07-06T06:24:00.062Z,19.6
2018-07-06T06:26:28.865Z,19.6
2018-07-06T06:27:40.318Z,19.7
2018-07-06T06:28:41.647Z,19.6
2018-07-06T06:29:43.240Z,19.6
2018-07-06T06:30:44.871Z,19.7
2018-07-06T06:31:54.597Z,19.6
2018-07-06T06:32:57.295Z,19.6
2018-07-06T06:33:58.841Z,19.6
2018-07-06T06:35:00.129Z,19.7
2018-07-06T06:36:01.486Z,19.6
2018-07-06T06:37:02.746Z,19.8
2018-07-06T06:38:04.037Z,19.8
2018-07-06T06:39:05.351Z,19.6
2018-07-06T06:40:07.101Z,19.8
2018-07-06T06:41:08.514Z,19.8
2018-07-06T06:42:09.897Z,19.7
2018-07-06T06:43:11.227Z,19.8
2018-07-06T06:44:16.316Z,19.8
2018-07-06T06:45:20.668Z,19.8
2018-07-06T06:46:24.175Z,19.8
2018-07-06T06:47:25.678Z,19.8
2018-07-06T06:48:26.959Z,20
2018-07-06T06:49:28.377Z,20.1
2018-07-06T06:50:29.846Z,19.9
2018-07-06T06:51:41.294Z,20
2018-07-06T06:52:42.546Z,19.9
2018-07-06T06:53:43.846Z,19.9
2018-07-06T06:54:48.269Z,19.9
2018-07-06T06:55:50.012Z,19.9
2018-07-06T06:56:51.254Z,19.9
2018-07-06T06:57:53.980Z,19.9
2018-07-06T06:58:56.056Z,19.9
2018-07-06T06:59:57.577Z,20
2018-07-06T07:00:58.997Z,20
2018-07-06T07:02:00.253Z,19.9
2018-07-06T07:03:01.680Z,20
2018-07-06T07:04:04.192Z,20.1
2018-07-06T07:05:05.713Z,20.1
2018-07-06T07:06:09.600Z,20
2018-07-06T07:07:11.103Z,20.1
2018-07-06T07:08:12.372Z,20.1
2018-07-06T07:09:13.895Z,20.3
2018-07-06T07:10:15.352Z,20.3
2018-07-06T07:11:20.673Z,20.3
2018-07-06T07:12:22.203Z,20.2
2018-07-06T07:13:28.585Z,20.3
2018-07-06T07:14:32.457Z,20.4
2018-07-06T07:15:33.834Z,20.4
2018-07-06T07:16:35.379Z,20.6
2018-07-06T07:17:37.091Z,20.8
2018-07-06T07:18:42.054Z,20.5
2018-07-06T07:19:43.585Z,20.5
2018-07-06T07:20:48.606Z,20.4
2018-07-06T07:21:51.976Z,20.6
2018-07-06T07:22:53.387Z,20.6
2018-07-06T07:23:54.700Z,20.6
2018-07-06T07:24:58.607Z,20.6
2018-07-06T07:26:16.272Z,20.8
2018-07-06T07:27:17.840Z,20.9
2018-07-06T07:28:23.216Z,20.9
2018-07-06T07:29:24.726Z,21.1
2018-07-06T07:30:26.115Z,21.1
2018-07-06T07:31:27.681Z,21.2
2018-07-06T07:32:29.221Z,21.1
2018-07-06T07:33:33.746Z,21.1
2018-07-06T07:34:38.254Z,21.2
2018-07-06T07:35:43.294Z,21.3
2018-07-06T07:36:44.714Z,21.3
2018-07-06T07:37:46.304Z,21.4
2018-07-06T07:38:47.961Z,21.4
2018-07-06T07:39:49.312Z,21.1
2018-07-06T07:42:07.489Z,21.1
2018-07-06T07:43:11.659Z,21.1
2018-07-06T07:44:13.265Z,21.2
2018-07-06T07:46:24.243Z,21.2
2018-07-06T07:47:31.072Z,21.2
2018-07-06T07:48:32.483Z,21.2
2018-07-06T07:49:35.104Z,21.3
2018-07-06T07:50:36.486Z,21.4
2018-07-06T07:51:40.834Z,21.4
2018-07-06T07:52:42.323Z,21.3
2018-07-06T07:53:43.994Z,21.3
2018-07-06T07:54:47.951Z,21.3
2018-07-06T07:55:50.140Z,21.4
2018-07-06T07:56:51.673Z,21.2
2018-07-06T07:57:56.330Z,21.2
2018-07-06T07:58:59.031Z,21.3
2018-07-06T08:00:00.340Z,21.2
2018-07-06T08:01:09.466Z,21.4
2018-07-06T08:02:18.341Z,21.4
2018-07-06T08:03:20.710Z,21.4
2018-07-06T08:04:24.949Z,21.2
2018-07-06T08:05:28.748Z,21.3
2018-07-06T08:06:30.336Z,21.3
2018-07-06T08:07:32.999Z,21.3
2018-07-06T08:08:39.274Z,21.5
2018-07-06T08:09:47.809Z,21.7
2018-07-06T08:10:59.387Z,21.5
2018-07-06T08:12:13.437Z,21.3
2018-07-06T08:13:19.521Z,21.3
2018-07-06T08:14:24.062Z,21.4
2018-07-06T08:15:26.265Z,21.4
2018-07-06T08:16:27.767Z,21.4
2018-07-06T08:17:29.845Z,21.6
2018-07-06T08:18:31.315Z,21.5
2018-07-06T08:19:43.492Z,21.5
2018-07-06T08:21:10.271Z,21.4
2018-07-06T08:22:15.235Z,21.5
2018-07-06T08:23:18.737Z,21.4
2018-07-06T08:24:22.204Z,21.4
2018-07-06T08:25:35.323Z,21.6
2018-07-06T08:26:44.255Z,21.8
2018-07-06T08:27:48.729Z,21.5
2018-07-06T08:28:50.364Z,21.5
2018-07-06T08:29:55.141Z,21.5
2018-07-06T08:30:56.518Z,21.4
2018-07-06T08:31:59.899Z,21.4
2018-07-06T08:33:01.314Z,21.5
2018-07-06T08:34:08.861Z,21.7
2018-07-06T08:35:15.099Z,21.6
2018-07-06T08:36:24.909Z,21.6
2018-07-06T08:37:29.670Z,21.6
2018-07-06T08:38:31.003Z,21.5
2018-07-06T08:39:32.393Z,21.4
2018-07-06T08:40:33.751Z,21.5
2018-07-06T08:41:35.328Z,21.4
2018-07-06T08:42:36.614Z,21.5
2018-07-06T08:43:37.985Z,21.6
2018-07-06T08:44:39.268Z,21.6
2018-07-06T08:45:43.018Z,21.6
2018-07-06T08:46:44.775Z,21.6
2018-07-06T08:47:46.749Z,21.6
2018-07-06T08:48:48.511Z,21.8
2018-07-06T08:49:57.110Z,21.9
2018-07-06T08:52:26.361Z,21.9
2018-07-06T08:53:35.100Z,22
2018-07-06T08:54:37.793Z,21.9
2018-07-06T08:55:41.769Z,22
2018-07-06T08:56:44.441Z,22
2018-07-06T08:57:46.049Z,22
2018-07-06T08:58:53.470Z,22
2018-07-06T08:59:59.000Z,22
2018-07-06T09:01:00.490Z,22
2018-07-06T09:02:07.340Z,22
2018-07-06T09:03:11.594Z,22.1
2018-07-06T09:04:14.913Z,21.9
2018-07-06T09:05:19.105Z,22
2018-07-06T09:06:20.581Z,22.1
2018-07-06T09:07:21.931Z,22.2
2018-07-06T09:08:23.355Z,22.2
2018-07-06T09:09:28.653Z,22.3
2018-07-06T09:11:49.958Z,22.3
2018-07-06T09:12:55.114Z,22.1
2018-07-06T09:13:57.955Z,22.2
2018-07-06T09:14:59.396Z,22.3
2018-07-06T09:16:08.569Z,22.2
2018-07-06T09:17:10.184Z,22.2
2018-07-06T09:18:13.563Z,22.4
2018-07-06T09:19:19.754Z,22.5
2018-07-06T09:20:21.861Z,22.5
2018-07-06T09:21:26.430Z,22.5
2018-07-06T09:22:30.687Z,22.3
2018-07-06T09:23:34.658Z,22.3
2018-07-06T09:24:40.131Z,22.3
2018-07-06T09:25:41.787Z,22.4
2018-07-06T09:26:43.091Z,22.4
2018-07-06T09:27:44.406Z,22.4
2018-07-06T09:28:45.968Z,22.5
2018-07-06T09:29:57.087Z,22.5
2018-07-06T09:31:16.656Z,22.6
2018-07-06T09:32:17.936Z,22.6
2018-07-06T09:33:19.335Z,22.5
2018-07-06T09:34:20.715Z,22.5
2018-07-06T09:35:23.046Z,22.5
2018-07-06T09:36:30.328Z,22.6
2018-07-06T09:37:37.555Z,22.7
2018-07-06T09:38:49.171Z,22.8
2018-07-06T09:39:53.475Z,22.8
2018-07-06T09:40:57.902Z,22.7
2018-07-06T09:41:59.347Z,22.7
2018-07-06T09:43:00.699Z,22.9
2018-07-06T09:44:02.262Z,22.9
2018-07-06T09:45:09.085Z,22.9
2018-07-06T09:46:19.850Z,22.8
2018-07-06T09:47:22.360Z,22.7
2018-07-06T09:48:25.540Z,22.8
2018-07-06T09:49:27.154Z,22.9
2018-07-06T09:50:39.230Z,23
2018-07-06T09:51:43.682Z,22.9
2018-07-06T09:52:46.536Z,22.9
2018-07-06T09:53:49.278Z,22.9
2018-07-06T09:54:52.064Z,22.9
2018-07-06T09:56:07.747Z,22.8
2018-07-06T09:57:14.731Z,22.8
2018-07-06T09:58:17.705Z,22.8
2018-07-06T09:59:21.013Z,22.7
2018-07-06T10:00:33.418Z,22.7
2018-07-06T10:01:52.060Z,22.8
2018-07-06T10:02:54.069Z,22.9
2018-07-06T10:03:59.930Z,22.9
2018-07-06T10:05:12.263Z,22.9
2018-07-06T10:06:16.252Z,22.8
2018-07-06T10:07:24.908Z,22.8
2018-07-06T10:08:31.288Z,22.9
2018-07-06T10:09:33.319Z,22.8
2018-07-06T10:10:34.651Z,22.8
2018-07-06T10:11:42.917Z,22.9
2018-07-06T10:12:44.414Z,23
2018-07-06T10:13:49.030Z,22.8
2018-07-06T10:14:51.306Z,22.8
2018-07-06T10:15:54.229Z,22.9
2018-07-06T10:16:58.418Z,22.8
2018-07-06T10:18:05.244Z,22.8
2018-07-06T10:19:09.849Z,22.9
2018-07-06T10:21:41.090Z,22.8
2018-07-06T10:22:57.134Z,22.6
2018-07-06T10:24:01.355Z,22.7
2018-07-06T10:25:10.562Z,22.7
2018-07-06T10:27:44.688Z,22.9
2018-07-06T10:28:49.335Z,22.9
2018-07-06T10:29:50.951Z,22.7
2018-07-06T10:30:59.653Z,22.9
2018-07-06T10:32:08.052Z,22.9
2018-07-06T10:33:09.673Z,22.8
2018-07-06T10:34:13.628Z,23
2018-07-06T10:35:15.163Z,23.1
2018-07-06T10:36:33.591Z,23
2018-07-06T10:37:35.281Z,23
2018-07-06T10:38:36.708Z,22.9
2018-07-06T10:39:40.735Z,22.9
2018-07-06T10:40:44.392Z,23.1
2018-07-06T10:41:46.047Z,23.2
2018-07-06T10:42:51.175Z,23.2
2018-07-06T10:43:57.767Z,23.4
2018-07-06T10:44:59.130Z,23.3
2018-07-06T10:46:04.718Z,23.4
2018-07-06T10:47:18.121Z,23.3
2018-07-06T10:48:21.364Z,23.5
2018-07-06T10:49:24.300Z,23.4
2018-07-06T10:50:32.620Z,23.4
2018-07-06T10:51:43.314Z,23.5
2018-07-06T10:52:44.990Z,23.2
2018-07-06T10:53:57.487Z,23.4
2018-07-06T10:54:59.179Z,23.5
2018-07-06T10:56:03.812Z,23.6
2018-07-06T10:57:19.260Z,23.7
2018-07-06T10:58:20.633Z,23.8
2018-07-06T10:59:22.215Z,23.9
2018-07-06T11:00:26.548Z,24
2018-07-06T11:01:39.870Z,23.9
2018-07-06T11:02:41.362Z,24
2018-07-06T11:03:52.425Z,24
2018-07-06T11:04:56.382Z,24.1
2018-07-06T11:05:59.104Z,24
2018-07-06T11:07:02.383Z,24
2018-07-06T11:09:25.506Z,24.1
2018-07-06T11:10:37.710Z,24.2
2018-07-06T11:11:45.895Z,24.2
2018-07-06T11:12:47.681Z,24.3
2018-07-06T11:13:50.137Z,24.2
2018-07-06T11:14:52.343Z,24.1
2018-07-06T11:16:00.281Z,24.1
2018-07-06T11:17:02.183Z,24.2
2018-07-06T11:18:06.548Z,24.3
2018-07-06T11:19:22.782Z,24.3
2018-07-06T11:20:26.798Z,24.3
2018-07-06T11:21:45.473Z,24.4
2018-07-06T11:22:48.366Z,24.4
2018-07-06T11:23:50.977Z,24.4
2018-07-06T11:24:55.348Z,24.4
2018-07-06T11:26:11.418Z,24.5
2018-07-06T11:27:23.355Z,24.5
2018-07-06T11:28:24.761Z,24.5
2018-07-06T11:29:29.292Z,24.5
2018-07-06T11:30:34.711Z,24.6
2018-07-06T11:31:46.543Z,24.7
2018-07-06T11:32:52.727Z,24.6
2018-07-06T11:33:56.876Z,24.6
2018-07-06T11:34:58.484Z,24.6
2018-07-06T11:36:04.848Z,24.6
2018-07-06T11:37:53.424Z,24.6
2018-07-06T11:38:57.236Z,24.8
2018-07-06T11:39:59.249Z,24.9
2018-07-06T11:41:04.423Z,24.9
2018-07-06T11:42:20.395Z,24.7
2018-07-06T11:43:21.807Z,24.9
2018-07-06T11:44:27.560Z,25
2018-07-06T11:45:33.202Z,25.1
2018-07-06T11:46:36.288Z,24.9
2018-07-06T11:47:38.011Z,24.8
2018-07-06T11:48:39.590Z,24.9
2018-07-06T11:49:40.911Z,25
2018-07-06T11:50:44.573Z,25
2018-07-06T11:51:51.448Z,24.7
2018-07-06T11:52:55.255Z,24.8
2018-07-06T11:54:06.878Z,24.8
2018-07-06T11:55:18.060Z,24.9
2018-07-06T11:56:28.540Z,24.9
2018-07-06T11:57:36.252Z,25.1
2018-07-06T11:58:39.101Z,25.1
2018-07-06T11:59:43.134Z,25.1
2018-07-06T12:00:52.154Z,25.1
2018-07-06T12:02:05.863Z,25.2
2018-07-06T12:03:07.721Z,25.1
2018-07-06T12:04:09.474Z,25.3
2018-07-06T12:05:18.488Z,25.2
2018-07-06T12:06:36.472Z,25.3
2018-07-06T12:07:43.099Z,25.1
2018-07-06T12:08:45.087Z,25.2
2018-07-06T12:09:46.669Z,25.3
2018-07-06T12:11:02.123Z,25.2
2018-07-06T12:12:08.756Z,25.1
2018-07-06T12:13:13.534Z,25.1
2018-07-06T12:14:15.708Z,25.1
2018-07-06T12:15:19.545Z,25.3
2018-07-06T12:16:44.664Z,25.5
2018-07-06T12:17:53.728Z,25.6
2018-07-06T12:18:58.144Z,25.6
2018-07-06T12:20:01.066Z,25.7
2018-07-06T12:21:09.095Z,25.6
2018-07-06T12:22:10.596Z,25.6
2018-07-06T12:23:11.908Z,25.7
2018-07-06T12:24:13.491Z,25.4
2018-07-06T12:25:20.133Z,25.5
2018-07-06T12:26:23.568Z,25.6
2018-07-06T12:27:27.940Z,25.6
2018-07-06T12:28:34.251Z,25.6
2018-07-06T12:29:35.819Z,25.6
2018-07-06T12:30:37.568Z,25.5
2018-07-06T12:31:39.045Z,25.5
2018-07-06T12:32:40.696Z,25.6
2018-07-06T12:33:43.989Z,25.7
2018-07-06T12:34:50.524Z,25.7
2018-07-06T12:35:57.797Z,25.8
2018-07-06T12:37:06.408Z,25.9
2018-07-06T12:38:08.090Z,25.9
2018-07-06T12:39:10.360Z,25.6
2018-07-06T12:40:12.617Z,25.7
2018-07-06T12:41:17.733Z,25.9
2018-07-06T12:42:27.331Z,25.6
2018-07-06T12:43:37.157Z,25.7
2018-07-06T12:44:39.814Z,25.8
2018-07-06T12:45:45.145Z,25.9
2018-07-06T12:47:22.305Z,26
2018-07-06T12:48:30.789Z,25.8
2018-07-06T12:49:36.507Z,25.9
2018-07-06T12:50:46.353Z,25.9
2018-07-06T12:51:53.618Z,26
2018-07-06T12:52:58.659Z,26.1
2018-07-06T12:54:00.250Z,26.1
2018-07-06T12:55:05.974Z,26.2
2018-07-06T12:56:17.356Z,26.2
2018-07-06T12:57:23.875Z,26.1
2018-07-06T12:58:25.628Z,26
2018-07-06T12:59:34.881Z,26.1
2018-07-06T13:00:40.112Z,26.1
2018-07-06T13:01:58.922Z,26
2018-07-06T13:03:00.862Z,26
2018-07-06T13:04:05.024Z,26.1
2018-07-06T13:05:14.184Z,26.2
2018-07-06T13:06:22.945Z,26.1
2018-07-06T13:07:29.161Z,26
2018-07-06T13:08:30.546Z,26.1
2018-07-06T13:09:35.209Z,26.2
2018-07-06T13:10:45.185Z,26
2018-07-06T13:11:49.137Z,26.1
2018-07-06T13:12:50.588Z,26.1
2018-07-06T13:13:53.222Z,26.2
2018-07-06T13:14:59.092Z,26.3
2018-07-06T13:17:40.347Z,26.3
2018-07-06T13:18:47.004Z,26.3
2018-07-06T13:19:52.839Z,26.3
2018-07-06T13:20:55.348Z,26.3
2018-07-06T13:21:56.907Z,26.4
2018-07-06T13:22:58.247Z,26.4
2018-07-06T13:24:02.793Z,26.4
2018-07-06T13:25:09.210Z,26.4
2018-07-06T13:26:20.200Z,26.5
2018-07-06T13:27:23.789Z,26.6
2018-07-06T13:28:30.810Z,26.5
2018-07-06T13:29:32.315Z,26.4
2018-07-06T13:30:38.062Z,26.4
2018-07-06T13:31:42.808Z,26.5
2018-07-06T13:32:55.012Z,26.5
2018-07-06T13:34:03.102Z,26.6
2018-07-06T13:35:17.399Z,26.6
2018-07-06T13:36:23.495Z,26.7
2018-07-06T13:37:26.345Z,26.6
2018-07-06T13:38:27.829Z,26.6
2018-07-06T13:39:29.217Z,26.6
2018-07-06T13:40:32.238Z,26.6
2018-07-06T13:41:34.545Z,26.6
2018-07-06T13:42:38.271Z,26.4
2018-07-06T13:43:52.857Z,26.6
2018-07-06T13:44:54.689Z,26.6
2018-07-06T13:46:04.324Z,26.6
2018-07-06T13:47:11.805Z,26.6
2018-07-06T13:48:13.328Z,26.5
2018-07-06T13:49:14.720Z,26.6
2018-07-06T13:50:19.588Z,26.6
2018-07-06T13:52:54.748Z,26.7
2018-07-06T13:53:58.490Z,26.7
2018-07-06T13:55:00.464Z,26.8
2018-07-06T13:56:03.801Z,26.8
2018-07-06T13:57:14.216Z,26.8
2018-07-06T13:58:25.355Z,26.7
2018-07-06T13:59:38.847Z,26.7
2018-07-06T14:00:44.282Z,26.8
2018-07-06T14:03:15.137Z,26.9
2018-07-06T14:04:19.768Z,26.8
2018-07-06T14:05:25.793Z,26.9
2018-07-06T14:07:50.230Z,26.9
2018-07-06T14:08:52.915Z,27
2018-07-06T14:09:54.675Z,26.9
2018-07-06T14:11:47.772Z,26.9
2018-07-06T14:12:49.133Z,27
2018-07-06T14:13:53.858Z,26.9
2018-07-06T14:14:55.730Z,27
2018-07-06T14:16:08.283Z,27
2018-07-06T14:17:11.031Z,27
2018-07-06T14:18:15.636Z,26.9
2018-07-06T14:19:17.050Z,26.9
2018-07-06T14:20:30.211Z,26.9
2018-07-06T14:21:33.882Z,26.9
2018-07-06T14:22:43.710Z,27
2018-07-06T14:23:45.628Z,27
2018-07-06T14:24:56.637Z,26.8
2018-07-06T14:26:05.265Z,26.7
2018-07-06T14:27:17.771Z,26.9
2018-07-06T14:28:25.191Z,26.8
2018-07-06T14:29:27.101Z,26.8